Porthleven, United Kingdom
Current Conditions -  °F | °C
As of 2:50 PM on Saturday 25 Oct 2014 (Local Time) from EGDR Reporting Station
Broken Clouds Broken Clouds  
Wind Chill: 57°   Ceiling: 3800
Heat Index: 57°   Visibility: 6mi
Dew Point: 50°   Wind: 13mph
Humidity: 77%   Direction: 230°SW
Pressure: 30.12"   Gusts: NA
Location:  50.09°N, 5.32°W
Report Text: EGDR 251350Z 23011KT 9999 FEW018 BKN038 14/10 Q1020 BLU
Loading
Personal Weather Stations






























Interactive Weather Map
Tropical Storm Tracking
New forecast layout! Learn more

10-Day Weather Forecast

Advertisements
Track Severe Weather on mobile